Time;durP1;ratioP1;P1;durP2;ratioP2;P2;SDS_P1;SDS_P2;PMS_P1;PMS_P2;Temp;Humidity;BMP_temperature;BMP_pressure;BME280_temperature;BME280_humidity;BME280_pressure;Samples;Min_cycle;Max_cycle;Signal;HPM_P1;HPM_P2
2022/10/18 00:01:14;;;;;;;51.13;24.75;;;13.80;99.90;;;;;;5025102;28;20045;-56
2022/10/18 00:03:40;;;;;;;48.22;23.90;;;13.90;99.90;;;;;;5027353;28;20076;-55
2022/10/18 00:06:08;;;;;;;61.45;27.52;;;11.10;99.90;;;;;;5025691;28;20513;-56
2022/10/18 00:08:35;;;;;;;52.50;26.38;;;12.80;99.90;;;;;;5026117;28;20117;-56
2022/10/18 00:11:01;;;;;;;55.17;25.08;;;12.90;99.90;;;;;;5019690;28;20041;-56
2022/10/18 00:13:27;;;;;;;62.67;29.25;;;12.80;99.90;;;;;;5025612;28;20132;-56
2022/10/18 00:15:58;;;;;;;50.85;25.75;;;14.20;99.90;;;;;;5026028;28;20124;-56
2022/10/18 00:18:24;;;;;;;65.70;30.13;;;12.90;99.90;;;;;;5023644;28;20403;-56
2022/10/18 00:21:02;;;;;;;57.47;27.48;;;13.00;99.90;;;;;;5024067;28;20735;-56
2022/10/18 00:23:29;;;;;;;65.00;28.35;;;12.70;99.90;;;;;;5023288;28;20049;-57
2022/10/18 00:26:23;;;;;;;53.38;25.25;;;12.80;99.90;;;;;;5024039;28;20047;-56
2022/10/18 00:28:54;;;;;;;61.38;28.42;;;12.80;99.90;;;;;;5024013;28;20052;-56
2022/10/18 00:31:26;;;;;;;73.00;33.23;;;12.70;99.90;;;;;;5024145;28;20069;-56
2022/10/18 00:33:57;;;;;;;66.45;28.02;;;12.80;99.90;;;;;;5022445;28;20037;-56
2022/10/18 00:36:24;;;;;;;60.25;30.33;;;12.80;99.90;;;;;;5021379;28;20096;-56
2022/10/18 00:38:50;;;;;;;56.03;27.38;;;12.60;99.90;;;;;;5022642;28;20037;-56
2022/10/18 00:41:20;;;;;;;71.78;30.15;;;12.60;99.90;;;;;;5022733;28;20052;-57
2022/10/18 00:44:11;;;;;;;103.03;35.10;;;13.10;99.90;;;;;;5024425;28;20036;-56
2022/10/18 00:46:44;;;;;;;59.90;28.83;;;12.60;99.90;;;;;;5022076;28;20048;-57
2022/10/18 00:49:13;;;;;;;63.88;28.95;;;12.60;99.90;;;;;;5021790;28;20434;-57
2022/10/18 00:51:45;;;;;;;52.97;27.85;;;12.70;99.90;;;;;;5026627;28;20045;-56
2022/10/18 00:54:13;;;;;;;50.05;26.10;;;12.60;99.90;;;;;;5018874;28;20045;-57
2022/10/18 00:56:39;;;;;;;78.78;33.92;;;12.50;99.90;;;;;;5021077;28;20079;-56
2022/10/18 00:59:06;;;;;;;70.57;31.27;;;13.50;99.90;;;;;;5024047;28;20041;-56
2022/10/18 01:01:32;;;;;;;48.55;27.05;;;12.80;99.90;;;;;;5021718;28;20054;-57
2022/10/18 01:03:58;;;;;;;43.05;23.10;;;12.60;99.90;;;;;;5025435;28;20033;-57
2022/10/18 01:06:27;;;;;;;86.78;34.90;;;12.30;99.90;;;;;;5021512;28;20133;-57
2022/10/18 01:09:27;;;;;;;75.40;32.88;;;12.30;99.90;;;;;;5021093;28;20411;-57
2022/10/18 01:12:18;;;;;;;58.05;29.23;;;12.40;99.90;;;;;;5023134;28;20076;-57
2022/10/18 01:15:24;;;;;;;78.57;33.42;;;12.70;99.90;;;;;;5020436;28;20058;-56
2022/10/18 01:18:13;;;;;;;111.45;35.42;;;12.50;99.90;;;;;;5019715;28;20033;-57
2022/10/18 01:20:48;;;;;;;171.20;39.95;;;12.30;99.90;;;;;;5024331;28;20041;-57
2022/10/18 01:23:27;;;;;;;108.05;30.77;;;12.50;99.90;;;;;;5022133;28;20045;-57
2022/10/18 01:26:07;;;;;;;291.45;38.67;;;12.40;99.90;;;;;;5025475;28;20049;-57
2022/10/18 01:28:55;;;;;;;317.50;44.00;;;12.40;99.90;;;;;;5019868;28;20114;-57
2022/10/18 01:31:27;;;;;;;414.23;44.28;;;12.90;99.90;;;;;;5024034;28;20686;-57
2022/10/18 01:33:57;;;;;;;323.05;38.45;;;12.40;99.90;;;;;;5024182;28;20557;-57
2022/10/18 01:36:27;;;;;;;453.23;48.85;;;12.40;99.90;;;;;;5025465;28;20124;-56
2022/10/18 01:38:56;;;;;;;381.65;42.42;;;12.50;99.90;;;;;;5023742;28;20892;-57
2022/10/18 01:41:24;;;;;;;529.25;55.85;;;12.40;99.90;;;;;;5022476;28;20065;-57
2022/10/18 01:43:54;;;;;;;450.95;48.38;;;12.60;99.90;;;;;;5025999;28;20396;-57
2022/10/18 01:46:24;;;;;;;375.45;41.78;;;12.40;99.90;;;;;;5026203;28;20505;-57
2022/10/18 01:48:51;;;;;;;373.55;39.63;;;12.50;99.90;;;;;;5021722;28;20089;-57
2022/10/18 01:51:28;;;;;;;444.90;54.72;;;12.50;99.90;;;;;;5025211;28;20041;-56
2022/10/18 01:53:55;;;;;;;361.10;46.33;;;12.20;99.90;;;;;;5025386;28;20683;-57
2022/10/18 01:56:41;;;;;;;422.23;46.78;;;12.40;99.90;;;;;;5025814;28;20084;-57
2022/10/18 01:59:42;;;;;;;333.10;39.80;;;12.60;99.90;;;;;;5020837;28;20038;-57
2022/10/18 02:02:26;;;;;;;347.30;45.88;;;12.60;99.90;;;;;;5023956;28;20126;-57
2022/10/18 02:05:21;;;;;;;267.30;40.33;;;12.50;99.90;;;;;;5024291;28;20057;-57
2022/10/18 02:07:59;;;;;;;394.98;48.70;;;12.50;99.90;;;;;;5025015;28;20481;-57
2022/10/18 02:10:30;;;;;;;474.98;56.05;;;12.40;99.90;;;;;;5024989;28;20056;-57
2022/10/18 02:12:57;;;;;;;267.40;38.83;;;12.50;99.90;;;;;;5023314;28;22850;-54
2022/10/18 02:15:28;;;;;;;144.77;33.45;;;12.60;99.90;;;;;;5020576;28;20049;-57
2022/10/18 02:17:55;;;;;;;167.10;37.00;;;12.40;99.90;;;;;;5023314;28;20037;-57
2022/10/18 02:20:24;;;;;;;217.13;38.47;;;12.40;99.90;;;;;;5026570;28;20041;-57
2022/10/18 02:22:53;;;;;;;259.55;44.40;;;13.40;99.90;;;;;;5025444;28;20818;-57
2022/10/18 02:25:23;;;;;;;415.77;56.00;;;12.60;99.90;;;;;;5024711;28;20037;-57
2022/10/18 02:27:50;;;;;;;264.20;43.25;;;12.40;99.90;;;;;;5026688;28;20222;-57
2022/10/18 02:30:16;;;;;;;400.63;53.60;;;12.70;99.90;;;;;;5026945;28;20416;-57
2022/10/18 02:32:42;;;;;;;372.17;51.35;;;12.40;99.90;;;;;;5026779;28;20471;-57
2022/10/18 02:35:17;;;;;;;260.88;44.65;;;12.40;99.90;;;;;;5023481;28;20081;-57
2022/10/18 02:37:45;;;;;;;240.73;43.97;;;12.40;99.90;;;;;;5026788;28;20044;-57
2022/10/18 02:40:11;;;;;;;250.57;43.42;;;12.40;99.90;;;;;;5026406;28;20459;-57
2022/10/18 02:42:48;;;;;;;363.85;50.72;;;12.60;99.90;;;;;;5025738;28;20049;-57
2022/10/18 02:45:15;;;;;;;297.77;45.88;;;12.50;99.90;;;;;;5027492;28;20814;-57
2022/10/18 02:47:40;;;;;;;348.08;53.95;;;12.30;99.90;;;;;;5026598;28;20096;-57
2022/10/18 02:50:07;;;;;;;287.50;45.47;;;12.40;99.90;;;;;;5026346;28;20316;-57
2022/10/18 02:52:32;;;;;;;213.43;37.25;;;12.40;99.90;;;;;;5026715;28;20049;-57
2022/10/18 02:54:58;;;;;;;383.90;51.17;;;12.30;99.90;;;;;;5026146;28;20913;-56
2022/10/18 02:57:24;;;;;;;266.38;41.22;;;12.40;99.90;;;;;;5023798;28;20132;-57
2022/10/18 02:59:49;;;;;;;367.70;48.88;;;12.30;99.90;;;;;;5024820;28;20097;-56
2022/10/18 03:02:15;;;;;;;229.38;41.92;;;12.10;99.90;;;;;;5023473;28;20296;-57
2022/10/18 03:04:41;;;;;;;192.63;36.50;;;12.20;99.90;;;;;;5024020;28;20470;-57
2022/10/18 03:07:07;;;;;;;301.45;38.38;;;12.40;99.90;;;;;;5028080;28;20553;-56
2022/10/18 03:09:32;;;;;;;195.48;31.23;;;12.20;99.90;;;;;;5026618;28;20041;-57
2022/10/18 03:11:58;;;;;;;242.18;33.00;;;14.40;99.90;;;;;;5027078;28;20036;-57
2022/10/18 03:14:24;;;;;;;335.95;40.08;;;12.30;99.90;;;;;;5024122;28;20048;-57
2022/10/18 03:16:49;;;;;;;306.52;37.78;;;12.10;99.90;;;;;;5023856;28;20029;-56
2022/10/18 03:19:15;;;;;;;212.77;31.33;;;12.30;99.90;;;;;;5025919;28;20045;-57
2022/10/18 03:21:41;;;;;;;302.02;41.42;;;12.00;99.90;;;;;;5021413;28;20041;-57
2022/10/18 03:24:06;;;;;;;208.13;36.17;;;13.20;99.90;;;;;;5026543;28;20045;-57
2022/10/18 03:26:32;;;;;;;258.25;36.50;;;12.00;99.90;;;;;;5022332;28;20048;-57
2022/10/18 03:28:58;;;;;;;308.02;43.72;;;12.30;99.90;;;;;;5026507;28;20104;-57
2022/10/18 03:31:24;;;;;;;221.15;36.83;;;12.10;99.90;;;;;;5024433;28;20310;-57
2022/10/18 03:33:49;;;;;;;183.20;30.33;;;12.00;99.90;;;;;;5024931;28;20041;-57
2022/10/18 03:36:15;;;;;;;322.40;44.20;;;12.10;99.90;;;;;;5023818;28;20033;-57
2022/10/18 03:38:41;;;;;;;200.32;34.13;;;12.00;99.90;;;;;;5026201;28;20048;-57
2022/10/18 03:41:07;;;;;;;220.70;38.63;;;12.20;99.90;;;;;;5024843;28;20045;-57
2022/10/18 03:43:33;;;;;;;158.68;33.60;;;12.10;99.90;;;;;;5021625;28;20116;-57
2022/10/18 03:45:59;;;;;;;185.10;35.67;;;12.00;99.90;;;;;;5022930;28;20402;-56
2022/10/18 03:48:25;;;;;;;133.15;33.38;;;12.00;99.90;;;;;;5023042;28;20410;-57
2022/10/18 03:50:50;;;;;;;171.80;34.05;;;12.30;99.90;;;;;;5022214;28;20044;-58
2022/10/18 03:53:16;;;;;;;312.25;45.42;;;12.00;99.90;;;;;;5025047;28;20077;-58
2022/10/18 03:55:42;;;;;;;76.90;23.92;;;11.80;99.90;;;;;;5023024;28;20126;-57
2022/10/18 03:58:08;;;;;;;230.80;34.58;;;11.90;99.90;;;;;;5023395;28;20040;-57
2022/10/18 04:00:34;;;;;;;327.20;42.30;;;11.90;99.90;;;;;;5020654;28;20048;-58
2022/10/18 04:03:00;;;;;;;131.18;28.50;;;12.00;99.90;;;;;;5021977;28;20048;-58
2022/10/18 04:05:29;;;;;;;191.75;33.50;;;12.00;99.90;;;;;;5022901;28;20036;-58
2022/10/18 04:07:55;;;;;;;292.75;36.03;;;12.00;99.90;;;;;;5024447;28;20056;-57
2022/10/18 04:10:21;;;;;;;183.25;30.92;;;11.80;99.90;;;;;;5026302;28;20041;-57
2022/10/18 04:12:46;;;;;;;219.48;33.38;;;11.70;99.90;;;;;;5023328;28;20746;-58
2022/10/18 04:15:12;;;;;;;195.73;31.98;;;13.50;99.90;;;;;;5024349;28;20041;-58
2022/10/18 04:17:38;;;;;;;230.30;31.83;;;12.40;99.90;;;;;;5025325;28;20199;-58
2022/10/18 04:20:04;;;;;;;209.30;32.22;;;12.00;99.90;;;;;;5023947;28;20068;-58
2022/10/18 04:22:29;;;;;;;254.98;32.72;;;11.80;99.90;;;;;;5026278;28;20053;-58
2022/10/18 04:24:56;;;;;;;180.90;27.25;;;12.50;99.90;;;;;;5024083;28;20064;-58
2022/10/18 04:27:21;;;;;;;224.30;29.60;;;11.90;99.90;;;;;;5023409;28;20048;-58
2022/10/18 04:29:47;;;;;;;193.60;25.42;;;11.60;99.90;;;;;;5023498;28;20033;-58
2022/10/18 04:32:13;;;;;;;208.40;30.27;;;11.60;99.90;;;;;;5025397;28;20102;-57
2022/10/18 04:34:38;;;;;;;151.20;27.88;;;11.60;99.90;;;;;;5025090;28;20040;-57
2022/10/18 04:37:04;;;;;;;191.13;29.48;;;11.50;99.90;;;;;;5022255;28;20057;-58
2022/10/18 04:39:31;;;;;;;145.23;28.13;;;11.60;99.90;;;;;;5023331;28;20135;-58
2022/10/18 04:41:56;;;;;;;142.85;29.02;;;11.50;99.90;;;;;;5021820;28;21246;-58
2022/10/18 04:44:22;;;;;;;154.77;28.23;;;13.00;99.90;;;;;;5025150;28;20100;-58
2022/10/18 04:46:48;;;;;;;112.95;26.45;;;11.50;99.90;;;;;;5023689;28;20041;-58
2022/10/18 04:49:13;;;;;;;172.93;28.65;;;11.40;99.90;;;;;;5023321;28;20199;-57
2022/10/18 04:51:39;;;;;;;191.43;27.58;;;11.30;99.90;;;;;;5022235;28;20105;-57
2022/10/18 04:54:05;;;;;;;131.65;23.50;;;12.00;99.90;;;;;;5021806;28;20037;-58
2022/10/18 04:56:31;;;;;;;192.63;28.10;;;11.30;99.90;;;;;;5022750;28;20147;-57
2022/10/18 04:58:58;;;;;;;101.13;19.25;;;13.20;99.90;;;;;;5022086;28;20041;-57
2022/10/18 05:01:24;;;;;;;211.52;27.98;;;11.60;99.90;;;;;;5023887;28;20045;-57
2022/10/18 05:03:53;;;;;;;179.50;27.33;;;11.10;99.90;;;;;;5023535;28;20699;-57
2022/10/18 05:06:20;;;;;;;84.90;19.00;;;11.10;99.90;;;;;;5022377;28;20075;-57
2022/10/18 05:08:47;;;;;;;87.45;18.98;;;11.90;99.90;;;;;;5024704;28;20085;-57
2022/10/18 05:11:13;;;;;;;179.85;28.10;;;11.20;99.90;;;;;;5021635;28;20134;-57
2022/10/18 05:13:38;;;;;;;35.90;14.88;;;11.10;99.90;;;;;;5023032;28;20148;-57
2022/10/18 05:16:05;;;;;;;72.97;18.17;;;10.90;99.90;;;;;;5022925;28;20148;-58
2022/10/18 05:18:30;;;;;;;84.93;20.10;;;11.00;99.90;;;;;;5026362;28;20045;-58
2022/10/18 05:20:56;;;;;;;106.65;19.85;;;11.20;99.90;;;;;;5026601;28;20056;-58
2022/10/18 05:23:22;;;;;;;159.88;23.35;;;11.10;99.90;;;;;;5026077;28;20259;-58
2022/10/18 05:25:48;;;;;;;173.55;26.25;;;13.10;99.90;;;;;;5025406;28;20507;-57
2022/10/18 05:28:14;;;;;;;89.70;19.95;;;10.90;99.90;;;;;;5024686;28;20065;-57
2022/10/18 05:30:40;;;;;;;110.65;18.73;;;11.70;99.90;;;;;;5028960;28;20128;-58
2022/10/18 05:33:07;;;;;;;197.90;25.85;;;11.60;99.90;;;;;;5029154;28;20044;-58
2022/10/18 05:35:33;;;;;;;123.10;23.55;;;10.90;99.90;;;;;;5023257;28;20137;-58
2022/10/18 05:38:03;;;;;;;125.50;21.63;;;12.80;99.90;;;;;;5023256;28;20103;-58
2022/10/18 05:40:28;;;;;;;112.85;20.63;;;10.90;99.90;;;;;;5028352;28;20409;-58
2022/10/18 05:42:54;;;;;;;170.05;21.33;;;13.00;99.90;;;;;;5026548;28;20053;-57
2022/10/18 05:45:20;;;;;;;208.63;23.85;;;10.50;99.90;;;;;;5027048;28;20041;-57
2022/10/18 05:47:45;;;;;;;114.97;16.58;;;10.70;99.90;;;;;;5026402;28;20081;-57
2022/10/18 05:50:11;;;;;;;161.25;23.90;;;10.70;99.90;;;;;;5026796;28;20529;-57
2022/10/18 05:52:37;;;;;;;167.30;22.55;;;10.50;99.90;;;;;;5026976;28;20044;-58
2022/10/18 05:55:02;;;;;;;199.85;22.15;;;10.40;99.90;;;;;;5025931;28;20048;-57
2022/10/18 05:57:28;;;;;;;193.68;21.10;;;10.50;99.90;;;;;;5025041;28;20701;-57
2022/10/18 05:59:54;;;;;;;171.32;18.30;;;11.20;99.90;;;;;;5025025;28;20057;-57
2022/10/18 06:02:20;;;;;;;137.75;18.45;;;11.90;99.90;;;;;;5027498;28;20045;-57
2022/10/18 06:04:45;;;;;;;125.25;17.58;;;11.90;99.90;;;;;;5027569;28;20037;-57
2022/10/18 06:07:11;;;;;;;199.57;22.20;;;10.20;99.90;;;;;;5026772;28;20144;-58
2022/10/18 06:09:37;;;;;;;160.52;19.02;;;12.20;99.90;;;;;;5010587;28;20034;-58
2022/10/18 06:12:03;;;;;;;90.68;18.52;;;12.40;99.90;;;;;;5023698;28;20053;-57
2022/10/18 06:14:29;;;;;;;82.43;17.35;;;11.90;99.90;;;;;;5022772;28;20577;-58
2022/10/18 06:16:55;;;;;;;75.13;18.30;;;10.40;99.90;;;;;;5027469;28;21644;-57
2022/10/18 06:19:24;;;;;;;192.13;25.25;;;10.30;99.90;;;;;;5024084;28;20504;-58
2022/10/18 06:21:50;;;;;;;146.25;21.48;;;10.20;99.90;;;;;;5024397;28;20375;-57
2022/10/18 06:24:17;;;;;;;128.85;20.95;;;10.70;99.90;;;;;;5025356;28;20048;-58
2022/10/18 06:26:43;;;;;;;126.80;19.63;;;10.00;99.90;;;;;;5023812;28;20444;-57
2022/10/18 06:29:09;;;;;;;147.10;23.00;;;10.00;99.90;;;;;;5027007;28;20098;-57
2022/10/18 06:31:34;;;;;;;98.78;16.80;;;10.20;99.90;;;;;;5022883;28;20129;-57
2022/10/18 06:34:01;;;;;;;136.93;20.23;;;10.10;99.90;;;;;;5024860;28;20619;-57
2022/10/18 06:36:27;;;;;;;173.07;20.08;;;10.10;99.90;;;;;;5026138;28;20522;-57
2022/10/18 06:38:53;;;;;;;149.90;20.90;;;9.90;99.90;;;;;;5024629;28;20093;-57
2022/10/18 06:41:19;;;;;;;69.10;14.27;;;10.10;99.90;;;;;;5006973;28;20446;-57
2022/10/18 06:43:49;;;;;;;127.10;17.85;;;11.20;99.90;;;;;;5022600;28;20044;-57
2022/10/18 06:46:15;;;;;;;129.35;17.48;;;9.90;99.90;;;;;;5024663;28;20292;-57
2022/10/18 06:48:41;;;;;;;71.82;12.82;;;10.10;99.90;;;;;;5026312;28;20044;-57
2022/10/18 06:51:07;;;;;;;103.30;18.73;;;11.60;99.90;;;;;;5026154;28;20557;-57
2022/10/18 06:53:38;;;;;;;107.25;18.92;;;11.70;99.90;;;;;;5024869;28;20474;-57
2022/10/18 06:56:12;;;;;;;65.20;13.43;;;10.10;99.90;;;;;;5027372;28;20041;-57
2022/10/18 06:58:38;;;;;;;75.97;13.65;;;10.20;99.90;;;;;;5025054;28;20041;-57
2022/10/18 07:01:15;;;;;;;88.88;15.70;;;10.80;99.90;;;;;;5026309;28;20201;-57
2022/10/18 07:03:41;;;;;;;84.35;16.02;;;10.60;99.90;;;;;;5025266;28;20536;-58
2022/10/18 07:06:09;;;;;;;67.60;17.10;;;10.20;99.90;;;;;;5024822;28;20272;-58
2022/10/18 07:08:35;;;;;;;99.93;19.75;;;10.20;99.90;;;;;;5025339;28;20051;-58
2022/10/18 07:11:01;;;;;;;90.15;16.52;;;10.10;99.90;;;;;;5021895;28;20041;-58
2022/10/18 07:13:31;;;;;;;47.83;11.98;;;10.20;99.90;;;;;;5021135;28;20096;-57
2022/10/18 07:16:14;;;;;;;99.85;17.42;;;10.20;99.90;;;;;;5020672;28;20669;-57
2022/10/18 07:18:45;;;;;;;123.13;17.27;;;10.10;99.90;;;;;;5022621;28;20152;-57
2022/10/18 07:21:13;;;;;;;64.15;13.57;;;12.00;99.90;;;;;;5024921;28;20037;-57
2022/10/18 07:23:41;;;;;;;33.85;9.48;;;11.80;99.90;;;;;;5022828;28;20669;-57
2022/10/18 07:26:33;;;;;;;51.88;11.93;;;12.10;99.90;;;;;;5024962;28;20351;-57
2022/10/18 07:29:06;;;;;;;74.88;13.02;;;12.10;99.90;;;;;;5015583;28;20293;-57
2022/10/18 07:31:33;;;;;;;74.10;15.07;;;12.50;99.90;;;;;;5026713;28;20053;-57
2022/10/18 07:33:59;;;;;;;45.28;11.80;;;10.70;99.90;;;;;;5022458;28;20048;-57
2022/10/18 07:36:25;;;;;;;41.08;10.35;;;11.20;99.90;;;;;;5023849;28;20397;-57
2022/10/18 07:38:52;;;;;;;35.67;10.32;;;11.60;99.90;;;;;;5024538;28;20072;-57
2022/10/18 07:41:18;;;;;;;77.72;15.35;;;10.40;99.90;;;;;;5023803;28;20066;-57
2022/10/18 07:43:46;;;;;;;41.03;10.68;;;10.50;99.90;;;;;;5022446;28;20528;-57
2022/10/18 07:46:13;;;;;;;41.00;11.93;;;10.80;99.90;;;;;;5024762;28;20041;-57
2022/10/18 07:48:39;;;;;;;26.08;9.88;;;10.60;99.90;;;;;;5023075;28;20045;-57
2022/10/18 07:51:06;;;;;;;17.35;10.00;;;12.20;99.90;;;;;;5025072;28;20460;-57
2022/10/18 07:53:33;;;;;;;28.77;8.85;;;12.90;99.90;;;;;;5026215;28;20645;-57
2022/10/18 07:56:04;;;;;;;14.95;8.93;;;11.60;99.90;;;;;;5023233;28;20037;-58
2022/10/18 07:58:31;;;;;;;17.85;10.32;;;11.00;99.90;;;;;;5025072;28;20041;-57
2022/10/18 08:01:01;;;;;;;23.58;12.52;;;11.00;99.90;;;;;;5024461;28;20528;-57
2022/10/18 08:03:26;;;;;;;15.52;8.98;;;11.00;99.90;;;;;;5027182;28;20033;-58
2022/10/18 08:05:53;;;;;;;15.23;10.70;;;11.90;99.90;;;;;;5021767;28;20034;-57
2022/10/18 08:08:20;;;;;;;13.77;9.15;;;11.40;99.90;;;;;;5023383;28;20418;-57
2022/10/18 08:10:46;;;;;;;13.00;8.00;;;11.20;99.90;;;;;;5019401;28;20045;-58
2022/10/18 08:13:12;;;;;;;16.83;8.07;;;12.90;99.90;;;;;;5022952;28;20568;-58
2022/10/18 08:15:38;;;;;;;19.75;7.57;;;11.40;99.90;;;;;;5024614;28;20041;-58
2022/10/18 08:18:03;;;;;;;19.40;10.40;;;11.60;99.90;;;;;;5024078;28;20041;-57
2022/10/18 08:20:30;;;;;;;14.38;9.45;;;11.60;99.90;;;;;;5024875;28;24270;-57
2022/10/18 08:22:56;;;;;;;21.60;7.38;;;12.80;99.90;;;;;;5023762;28;20053;-57
2022/10/18 08:25:22;;;;;;;13.85;7.15;;;11.70;99.90;;;;;;5022375;28;20837;-58
2022/10/18 08:27:48;;;;;;;15.05;7.72;;;13.10;99.90;;;;;;5024025;28;20048;-57
2022/10/18 08:30:14;;;;;;;10.93;6.10;;;13.20;99.90;;;;;;5021003;28;20094;-57
2022/10/18 08:32:39;;;;;;;17.02;7.00;;;12.00;99.90;;;;;;5026744;28;20074;-57
2022/10/18 08:35:05;;;;;;;10.20;5.97;;;12.30;99.90;;;;;;5022713;28;20082;-58
2022/10/18 08:37:32;;;;;;;15.95;5.75;;;12.90;99.90;;;;;;5021214;28;20540;-57
2022/10/18 08:39:57;;;;;;;12.07;4.95;;;13.50;99.90;;;;;;5024104;28;20056;-57
2022/10/18 08:42:45;;;;;;;9.85;5.03;;;13.70;99.90;;;;;;5022940;28;20049;-58
2022/10/18 08:45:12;;;;;;;12.70;4.50;;;13.70;99.90;;;;;;5023165;28;20098;-58
2022/10/18 08:47:43;;;;;;;13.02;4.25;;;13.60;99.90;;;;;;5026207;28;20131;-57
2022/10/18 08:50:30;;;;;;;14.60;4.38;;;13.60;99.90;;;;;;5020628;28;20072;-58
2022/10/18 08:53:04;;;;;;;13.02;4.40;;;13.50;99.90;;;;;;5019897;28;20056;-57
2022/10/18 08:55:51;;;;;;;14.52;4.75;;;13.60;99.90;;;;;;5024453;28;20074;-58
2022/10/18 08:58:22;;;;;;;16.35;4.63;;;14.30;99.90;;;;;;5023057;28;20480;-57
2022/10/18 09:01:08;;;;;;;11.82;4.57;;;13.70;99.90;;;;;;5023032;28;20040;-57
2022/10/18 09:04:01;;;;;;;17.25;4.03;;;14.50;99.90;;;;;;5025603;28;20073;-57
2022/10/18 09:06:34;;;;;;;14.95;3.40;;;13.90;99.90;;;;;;5022714;28;20458;-58
2022/10/18 09:09:39;;;;;;;14.60;4.10;;;14.00;99.90;;;;;;5021661;28;20509;-57
2022/10/18 09:12:38;;;;;;;18.17;4.72;;;14.10;99.90;;;;;;4976633;28;20048;-57
2022/10/18 09:15:26;;;;;;;11.70;3.13;;;14.30;99.90;;;;;;5025781;28;20049;-57
2022/10/18 09:18:19;;;;;;;14.02;3.08;;;14.20;99.90;;;;;;5021222;28;20402;-57
2022/10/18 09:20:45;;;;;;;17.05;2.75;;;14.50;99.90;;;;;;5023574;28;20037;-57
2022/10/18 09:23:19;;;;;;;13.70;3.25;;;14.80;99.90;;;;;;5024583;28;20398;-57
2022/10/18 09:26:22;;;;;;;16.77;2.60;;;15.00;99.90;;;;;;5025113;28;20096;-57
2022/10/18 09:28:48;;;;;;;;;;;14.90;99.90;;;;;;4948467;28;20451;-57
2022/10/18 09:31:32;;;;;;;13.05;2.10;;;15.00;99.50;;;;;;5007197;28;19925;-57
2022/10/18 09:34:03;;;;;;;12.85;2.28;;;15.00;99.90;;;;;;5023452;28;20080;-57
2022/10/18 09:36:36;;;;;;;17.65;3.00;;;15.00;99.90;;;;;;5020137;28;20041;-57
2022/10/18 09:39:17;;;;;;;14.07;2.10;;;14.70;99.90;;;;;;5021832;28;20041;-57
2022/10/18 09:42:10;;;;;;;12.43;2.42;;;15.10;99.90;;;;;;5023829;27;20080;-58
2022/10/18 09:44:41;;;;;;;13.32;2.38;;;15.00;99.90;;;;;;5022285;28;20087;-57
2022/10/18 09:47:36;;;;;;;15.13;2.47;;;17.10;99.90;;;;;;5020771;28;20044;-57
2022/10/18 09:50:12;;;;;;;15.52;2.90;;;15.00;99.90;;;;;;5020940;28;20186;-57
2022/10/18 09:52:45;;;;;;;14.98;3.50;;;14.90;99.90;;;;;;5020759;28;20045;-57
2022/10/18 09:55:20;;;;;;;16.55;3.45;;;14.90;99.90;;;;;;5022633;28;20094;-57
2022/10/18 09:57:56;;;;;;;16.48;3.60;;;14.70;99.90;;;;;;5024266;28;20165;-57
2022/10/18 10:00:37;;;;;;;17.55;3.88;;;15.00;99.90;;;;;;5020091;28;20053;-57
2022/10/18 10:03:11;;;;;;;14.98;3.15;;;14.90;99.90;;;;;;5021848;28;20102;-57
2022/10/18 10:05:37;;;;;;;17.30;3.25;;;14.90;99.90;;;;;;5024500;28;20423;-57
2022/10/18 10:08:03;;;;;;;18.85;3.78;;;15.00;99.90;;;;;;5026619;28;20137;-57
2022/10/18 10:10:30;;;;;;;14.65;3.08;;;15.00;99.90;;;;;;5026687;28;20246;-57
2022/10/18 10:13:23;;;;;;;12.90;2.40;;;15.10;99.90;;;;;;5026300;28;20048;-57
2022/10/18 10:15:51;;;;;;;17.23;3.00;;;15.20;95.40;;;;;;5021649;28;20037;-57
2022/10/18 10:18:20;;;;;;;15.15;3.03;;;15.30;98.20;;;;;;5025274;28;20037;-55
2022/10/18 10:20:50;;;;;;;15.80;2.97;;;15.10;97.10;;;;;;5024495;28;20041;-56
2022/10/18 10:23:24;;;;;;;13.65;2.30;;;15.30;97.40;;;;;;5023367;28;20314;-56
2022/10/18 10:25:53;;;;;;;10.40;2.70;;;15.20;93.70;;;;;;5024393;28;20351;-56
2022/10/18 10:28:22;;;;;;;16.63;2.95;;;15.20;93.00;;;;;;5023360;28;20143;-56
2022/10/18 10:30:48;;;;;;;16.15;3.00;;;15.30;96.20;;;;;;5024710;28;20611;-55
2022/10/18 10:33:35;;;;;;;16.05;3.63;;;15.40;97.30;;;;;;5026750;28;20105;-57
2022/10/18 10:36:14;;;;;;;20.02;4.45;;;15.40;94.70;;;;;;5028721;28;20533;-56
2022/10/18 10:38:40;;;;;;;12.15;2.70;;;15.30;94.50;;;;;;5024010;28;20125;-57
2022/10/18 10:41:20;;;;;;;16.13;2.75;;;15.40;88.20;;;;;;5025666;28;20456;-57
2022/10/18 10:43:47;;;;;;;13.80;2.13;;;17.90;92.00;;;;;;5023245;28;20045;-57
2022/10/18 10:46:19;;;;;;;11.98;2.83;;;15.20;91.80;;;;;;5023843;28;20041;-56
2022/10/18 10:48:56;;;;;;;17.20;2.00;;;15.30;90.00;;;;;;5023473;28;20048;-57
2022/10/18 10:51:37;;;;;;;12.68;2.17;;;15.70;90.20;;;;;;5027526;28;20040;-57
2022/10/18 10:54:20;;;;;;;13.23;2.20;;;15.70;76.30;;;;;;5024591;28;20041;-57
2022/10/18 10:57:03;;;;;;;12.82;1.90;;;15.80;73.20;;;;;;5020312;28;20537;-57
2022/10/18 10:59:37;;;;;;;15.15;2.38;;;15.80;74.50;;;;;;5025207;28;20048;-57
2022/10/18 11:02:20;;;;;;;13.70;2.35;;;16.10;76.40;;;;;;5025838;28;20040;-58
2022/10/18 11:04:48;;;;;;;18.67;3.35;;;16.30;67.50;;;;;;5025755;28;20139;-57
2022/10/18 11:07:26;;;;;;;12.73;1.75;;;16.50;66.30;;;;;;5025202;28;20734;-57
2022/10/18 11:10:10;;;;;;;15.35;2.35;;;16.50;48.90;;;;;;5022207;28;20041;-58
2022/10/18 11:12:41;;;;;;;12.45;1.90;;;16.50;24.10;;;;;;5016049;28;20535;-57
2022/10/18 11:15:13;;;;;;;10.05;1.85;;;16.80;26.20;;;;;;5023436;28;20226;-57
2022/10/18 11:17:45;;;;;;;14.18;1.83;;;16.60;29.10;;;;;;5023558;28;20048;-57
2022/10/18 11:20:37;;;;;;;12.00;1.73;;;17.10;35.30;;;;;;5022776;28;20123;-57
2022/10/18 11:23:07;;;;;;;;;;;17.10;1.00;;;;;;5021552;28;20124;-57
2022/10/18 11:26:02;;;;;;;15.30;2.97;;;17.30;14.30;;;;;;5023519;28;19925;-57
2022/10/18 11:29:05;;;;;;;8.40;1.52;;;17.40;3.40;;;;;;5024409;28;20048;-57
2022/10/18 11:31:37;;;;;;;8.45;1.77;;;17.30;1.00;;;;;;5019377;28;20124;-57
2022/10/18 11:34:44;;;;;;;10.52;1.48;;;17.50;1.00;;;;;;5022369;28;20499;-57
2022/10/18 11:37:38;;;;;;;13.25;2.08;;;17.40;1.00;;;;;;5019340;28;20037;-57
2022/10/18 11:40:16;;;;;;;13.07;1.95;;;17.30;1.00;;;;;;5019396;28;20049;-57
2022/10/18 11:43:06;;;;;;;7.88;1.60;;;16.90;1.00;;;;;;5020289;28;20053;-57
2022/10/18 11:45:46;;;;;;;12.98;1.80;;;16.70;1.00;;;;;;5023015;28;20394;-57
2022/10/18 11:48:15;;;;;;;11.65;1.88;;;16.50;1.00;;;;;;5023757;28;20056;-57
2022/10/18 11:50:50;;;;;;;12.90;1.77;;;16.30;6.10;;;;;;5027004;28;20649;-57
2022/10/18 11:53:30;;;;;;;9.30;1.50;;;16.40;13.70;;;;;;5019889;28;20049;-58
2022/10/18 11:56:21;;;;;;;14.32;2.08;;;16.60;12.10;;;;;;5026873;28;20045;-57
2022/10/18 11:59:19;;;;;;;10.90;2.13;;;16.70;12.10;;;;;;5024014;28;20044;-57
2022/10/18 12:01:50;;;;;;;14.07;2.35;;;16.90;6.30;;;;;;5019765;28;20047;-57
2022/10/18 12:04:23;;;;;;;15.88;2.25;;;16.50;1.00;;;;;;5027079;28;20501;-57
2022/10/18 12:06:55;;;;;;;13.25;2.15;;;16.30;1.20;;;;;;5023201;28;20048;-57
2022/10/18 12:09:35;;;;;;;9.15;1.83;;;15.90;7.80;;;;;;5024611;28;20518;-57
2022/10/18 12:12:25;;;;;;;9.73;1.80;;;15.70;12.50;;;;;;5023694;28;20452;-57
2022/10/18 12:15:14;;;;;;;15.55;2.90;;;15.60;27.60;;;;;;5021720;28;20398;-57
2022/10/18 12:17:44;;;;;;;14.10;1.67;;;15.80;36.50;;;;;;5021365;28;20756;-57
2022/10/18 12:20:31;;;;;;;13.27;1.60;;;15.80;41.30;;;;;;5024501;28;20045;-57
2022/10/18 12:23:29;;;;;;;8.55;1.73;;;16.00;5.50;;;;;;5021343;28;20099;-57
2022/10/18 12:26:01;;;;;;;13.38;1.70;;;16.00;8.10;;;;;;5023982;28;20037;-57
2022/10/18 12:28:35;;;;;;;;;;;15.80;3.70;;;;;;5022788;28;20981;-57
2022/10/18 12:31:19;;;;;;;18.08;2.15;;;15.80;1.00;;;;;;5020618;28;19925;-57
2022/10/18 12:33:49;;;;;;;13.32;2.22;;;15.50;5.90;;;;;;5020733;28;20050;-57
2022/10/18 12:36:21;;;;;;;11.90;1.60;;;15.30;8.20;;;;;;5022690;28;20049;-57
2022/10/18 12:39:12;;;;;;;12.18;1.77;;;15.10;19.20;;;;;;5022245;28;20615;-56
2022/10/18 12:41:38;;;;;;;9.88;2.00;;;15.00;22.50;;;;;;5012934;28;20698;-57
2022/10/18 12:44:17;;;;;;;9.25;1.70;;;15.80;31.40;;;;;;5021538;28;20047;-56
2022/10/18 12:46:55;;;;;;;10.70;1.60;;;15.20;24.10;;;;;;5023989;28;20037;-56
2022/10/18 12:49:28;;;;;;;17.02;2.50;;;15.00;14.00;;;;;;5021563;28;20156;-57
2022/10/18 12:51:58;;;;;;;10.90;1.83;;;15.00;19.60;;;;;;5020887;28;20177;-57